Onweer radar Meer informatie blitzortung!


Regen radar Meer informatie rain snow radar



METAR rapporten vliegvelden

   
EHRD - Rotterdam
Gewijzigd: 26-04-2019 16:25
Licht bewolkt  
Licht bewolkt  
   Wind: WZW 12 km/h
Wind: WZW 12 km/h
Temperatuur: 17°C
Dauwpunt: 6°C
Vochtigheid: 49%
Barometer: 1013 hPa
Bewolking: Few Clouds
Zicht: meer dan 10 km
Bewolking: Licht bewolkt 4600 ft
EHRD 261425Z AUTO 25012KT 220V300 9999 FEW046 17/06 Q1013 NOSIG
EBAW - Antwerpen
Gewijzigd: 26-04-2019 16:20
Gedeeltelijk bewolkt  
Gedeeltelijk bewolkt  
   Wind: ZW 11 km/h
Wind: ZW 11 km/h
Temperatuur: 17°C
Dauwpunt: 4°C
Vochtigheid: 42%
Barometer: 1013 hPa
Bewolking: Partly Cloudy
Zicht: meer dan 10 km
Bewolking: Gedeeltelijk bewolkt 4500 ft
EBAW 261420Z 22011KT 190V260 9999 SCT045 17/04 Q1013 NOSIG
EHAM - Amsterdam
Gewijzigd: 26-04-2019 16:25
Licht bewolkt  
Licht bewolkt  
   Wind: WZW 10 km/h
Wind: WZW 10 km/h
Temperatuur: 16°C
Dauwpunt: 8°C
Vochtigheid: 59%
Barometer: 1013 hPa
Bewolking: Few Clouds
Zicht: meer dan 10 km
Bewolking: Licht bewolkt 2900 ft
EHAM 261425Z 25010KT 210V290 9999 FEW029 16/08 Q1013 NOSIG
EHEH - Eindhoven
Gewijzigd: 26-04-2019 16:25
Bewolking  
Bewolking  
   Wind: Westen 7 km/h
Wind: Westen 7 km/h
Temperatuur: 17°C
Dauwpunt: 6°C
Vochtigheid: 49%
Barometer: 1013 hPa
Bewolking: Overcast
Zicht: meer dan 10 km
Bewolking: Gedeeltelijk bewolkt 7200 ft,
Bewolking 8200 ft
EHEH 261425Z AUTO 26007KT 210V280 9999 SCT072 OVC082 17/06 Q1013 BLU 24010KT 9999 BKN045
  

Script ontwikkeld door  Saratoga-weather.org Aangepast voor de template door  Weerstation Leuven

U vindt ons ook hier:

Het Weer Aktueel

Apparatuur in gebruik:

Weerstation
Davis VP2

Weerprogramma
Cumulus

Weercomputer
Pipo X9 with Windows 10

Davis VP2

Cumulus

Pipo X9 with Windows 10